Time;durP1;ratioP1;P1;durP2;ratioP2;P2;SDS_P1;SDS_P2;PMS_P1;PMS_P2;Temp;Humidity;BMP_temperature;BMP_pressure;BME280_temperature;BME280_humidity;BME280_pressure;Samples;Min_cycle;Max_cycle;Signal;HPM_P1;HPM_P2
2023/04/25 00:01:35;;;;;;;18.25;4.78;;;;;;;;;;5058609;28;20036;-55
2023/04/25 00:04:02;;;;;;;12.82;4.97;;;;;;;;;;5057655;28;20044;-55
2023/04/25 00:06:29;;;;;;;16.65;5.30;;;;;;;;;;5058402;28;20041;-55
2023/04/25 00:08:56;;;;;;;16.00;4.72;;;;;;;;;;5057560;28;20102;-54
2023/04/25 00:11:22;;;;;;;15.88;5.32;;;6.20;99.90;;;;;;5057903;28;20047;-55
2023/04/25 00:13:49;;;;;;;17.70;5.53;;;;;;;;;;5058664;28;20503;-56
2023/04/25 00:16:15;;;;;;;14.10;4.10;;;;;;;;;;5056756;28;20029;-55
2023/04/25 00:18:46;;;;;;;17.90;4.50;;;;;;;;;;5059484;28;20048;-56
2023/04/25 00:21:12;;;;;;;19.05;5.78;;;;;;;;;;5057901;28;20037;-55
2023/04/25 00:23:38;;;;;;;21.92;5.43;;;;;;;;;;5058746;28;20041;-56
2023/04/25 00:26:04;;;;;;;18.92;6.15;;;;;;;;;;5058661;28;20040;-55
2023/04/25 00:28:30;;;;;;;16.20;3.58;;;;;;;;;;5059774;28;20033;-54
2023/04/25 00:30:56;;;;;;;12.77;4.45;;;;;;;;;;5058773;28;20071;-54
2023/04/25 00:33:22;;;;;;;18.55;4.78;;;;;;;;;;5058089;28;20095;-53
2023/04/25 00:35:49;;;;;;;18.80;4.38;;;;;;;;;;5056527;28;20048;-53
2023/04/25 00:38:15;;;;;;;15.15;3.70;;;;;;;;;;5060365;28;20037;-56
2023/04/25 00:40:43;;;;;;;18.90;5.55;;;;;;;;;;5060483;28;20029;-55
2023/04/25 00:43:09;;;;;;;16.27;3.92;;;;;;;;;;5058346;28;20036;-53
2023/04/25 00:45:38;;;;;;;13.85;3.85;;;;;;;;;;5059083;28;20409;-55
2023/04/25 00:48:05;;;;;;;14.90;4.65;;;;;;;;;;5058214;28;20032;-55
2023/04/25 00:50:32;;;;;;;10.27;2.95;;;6.20;84.80;;;;;;5058669;28;20037;-56
2023/04/25 00:52:58;;;;;;;11.30;3.47;;;6.20;77.90;;;;;;5056480;28;20039;-55
2023/04/25 00:55:24;;;;;;;15.27;3.20;;;6.20;4.30;;;;;;5057439;28;20041;-55
2023/04/25 00:57:50;;;;;;;14.48;3.72;;;;;;;;;;5055996;28;20399;-56
2023/04/25 01:00:16;;;;;;;14.10;3.63;;;;;;;;;;5057315;28;20519;-54
2023/04/25 01:02:44;;;;;;;10.45;3.15;;;6.20;18.20;;;;;;5056117;28;20423;-55
2023/04/25 01:05:11;;;;;;;16.10;3.67;;;;;;;;;;5056231;28;20036;-55
2023/04/25 01:07:37;;;;;;;14.82;3.53;;;6.20;1.00;;;;;;5057524;28;20119;-56
2023/04/25 01:10:04;;;;;;;15.63;4.22;;;;;;;;;;5056031;28;20036;-56
2023/04/25 01:12:30;;;;;;;18.83;4.95;;;;;;;;;;5057727;28;20049;-56
2023/04/25 01:14:57;;;;;;;13.43;3.50;;;;;;;;;;5055487;28;20048;-55
2023/04/25 01:17:23;;;;;;;15.70;3.50;;;;;;;;;;5057454;28;20043;-56
2023/04/25 01:19:50;;;;;;;12.63;3.17;;;;;;;;;;5057976;28;20436;-56
2023/04/25 01:22:16;;;;;;;12.93;3.25;;;6.60;99.90;;;;;;5056331;28;20076;-55
2023/04/25 01:24:43;;;;;;;13.30;3.45;;;;;;;;;;5057552;28;20044;-53
2023/04/25 01:27:10;;;;;;;11.48;3.55;;;;;;;;;;5057882;28;20158;-54
2023/04/25 01:29:36;;;;;;;15.25;3.10;;;6.60;99.90;;;;;;5055921;28;20044;-55
2023/04/25 01:32:03;;;;;;;12.10;2.72;;;;;;;;;;5056649;28;20041;-55
2023/04/25 01:34:29;;;;;;;11.05;3.20;;;;;;;;;;5056187;28;20128;-56
2023/04/25 01:36:55;;;;;;;12.45;3.10;;;;;;;;;;5056108;28;20580;-53
2023/04/25 01:39:21;;;;;;;6.30;1.90;;;;;;;;;;5057122;28;20203;-56
2023/04/25 01:41:47;;;;;;;9.32;2.97;;;5.70;60.40;;;;;;5057081;28;20037;-54
2023/04/25 01:44:13;;;;;;;13.02;2.42;;;;;;;;;;5038157;28;20040;-56
2023/04/25 01:46:39;;;;;;;9.60;3.17;;;5.60;41.50;;;;;;5056809;28;20042;-55
2023/04/25 01:49:05;;;;;;;12.65;2.53;;;;;;;;;;5055691;28;20040;-55
2023/04/25 01:51:31;;;;;;;11.00;2.67;;;;;;;;;;5056458;28;20044;-56
2023/04/25 01:53:58;;;;;;;12.40;2.30;;;;;;;;;;5055244;28;20581;-54
2023/04/25 01:56:24;;;;;;;11.10;3.38;;;5.40;34.30;;;;;;5058100;28;20086;-55
2023/04/25 01:58:51;;;;;;;10.93;2.70;;;;;;;;;;5056657;28;20044;-56
2023/04/25 02:01:17;;;;;;;10.98;2.33;;;;;;;;;;5054833;28;20056;-55
2023/04/25 02:03:43;;;;;;;11.40;2.58;;;;;;;;;;5057073;28;20037;-55
2023/04/25 02:06:09;;;;;;;10.15;3.83;;;;;;;;;;5056730;28;20404;-55
2023/04/25 02:08:37;;;;;;;15.07;3.00;;;5.70;1.00;;;;;;5056649;28;20051;-56
2023/04/25 02:11:03;;;;;;;12.05;3.10;;;;;;;;;;5059686;28;20055;-56
2023/04/25 02:13:29;;;;;;;11.88;3.35;;;;;;;;;;5061241;28;20059;-54
2023/04/25 02:15:55;;;;;;;13.20;3.13;;;;;;;;;;5061628;28;20105;-56
2023/04/25 02:18:21;;;;;;;11.30;3.47;;;;;;;;;;5061175;28;20040;-56
2023/04/25 02:20:47;;;;;;;10.75;2.90;;;;;;;;;;5059718;28;20051;-53
2023/04/25 02:23:15;;;;;;;8.65;2.40;;;;;;;;;;5062224;28;20162;-56
2023/04/25 02:25:41;;;;;;;10.82;2.95;;;;;;;;;;5059176;28;20437;-54
2023/04/25 02:28:07;;;;;;;10.93;2.65;;;;;;;;;;5059647;28;20052;-54
2023/04/25 02:30:33;;;;;;;9.25;2.88;;;;;;;;;;5059418;28;20059;-55
2023/04/25 02:32:59;;;;;;;16.52;2.83;;;;;;;;;;5059303;28;20648;-56
2023/04/25 02:35:25;;;;;;;13.32;3.40;;;;;;;;;;5060850;28;20120;-56
2023/04/25 02:37:51;;;;;;;8.27;2.72;;;;;;;;;;5060692;28;20037;-55
2023/04/25 02:40:17;;;;;;;11.32;2.60;;;;;;;;;;5060869;28;20379;-56
2023/04/25 02:42:45;;;;;;;9.02;2.20;;;;;;;;;;5042493;28;20045;-56
2023/04/25 02:45:11;;;;;;;10.00;2.97;;;;;;;;;;5059741;28;20129;-56
2023/04/25 02:47:37;;;;;;;5.93;1.83;;;;;;;;;;5061229;28;20383;-55
2023/04/25 02:50:04;;;;;;;15.63;3.08;;;;;;;;;;5059975;28;20500;-54
2023/04/25 02:52:30;;;;;;;8.73;2.75;;;;;;;;;;5058714;28;20045;-55
2023/04/25 02:54:56;;;;;;;15.43;2.95;;;;;;;;;;5058781;28;20048;-56
2023/04/25 02:57:22;;;;;;;8.73;2.53;;;;;;;;;;5049062;28;20041;-56
2023/04/25 02:59:48;;;;;;;12.32;2.80;;;;;;;;;;5061169;28;20402;-56
2023/04/25 03:02:14;;;;;;;11.52;3.00;;;;;;;;;;5062165;28;20126;-55
2023/04/25 03:04:41;;;;;;;11.48;2.80;;;;;;;;;;5058405;28;21691;-53
2023/04/25 03:07:07;;;;;;;13.73;2.90;;;;;;;;;;5062437;28;20131;-56
2023/04/25 03:09:33;;;;;;;13.52;2.65;;;;;;;;;;5059332;28;20425;-56
2023/04/25 03:12:00;;;;;;;13.57;3.25;;;;;;;;;;5060007;28;20044;-56
2023/04/25 03:14:26;;;;;;;10.77;2.55;;;;;;;;;;5060152;28;20123;-54
2023/04/25 03:16:52;;;;;;;8.15;2.60;;;;;;;;;;5058699;28;20406;-56
2023/04/25 03:19:18;;;;;;;17.27;3.72;;;;;;;;;;5062353;28;20170;-53
2023/04/25 03:21:45;;;;;;;14.00;3.00;;;;;;;;;;5059558;28;20087;-55
2023/04/25 03:24:11;;;;;;;10.18;2.47;;;;;;;;;;5059990;28;20040;-55
2023/04/25 03:26:37;;;;;;;15.77;3.03;;;;;;;;;;5059247;28;20047;-56
2023/04/25 03:29:03;;;;;;;10.27;2.35;;;;;;;;;;5058612;28;20041;-56
2023/04/25 03:31:30;;;;;;;11.63;3.28;;;;;;;;;;5058859;28;20040;-56
2023/04/25 03:33:56;;;;;;;9.18;2.47;;;;;;;;;;5058307;28;20528;-56
2023/04/25 03:36:22;;;;;;;9.45;2.33;;;;;;;;;;5047736;28;20041;-56
2023/04/25 03:38:48;;;;;;;8.48;2.08;;;;;;;;;;5066945;28;20043;-56
2023/04/25 03:41:14;;;;;;;11.43;3.22;;;;;;;;;;5057764;28;20513;-56
2023/04/25 03:43:40;;;;;;;10.63;2.58;;;;;;;;;;5060481;28;20048;-56
2023/04/25 03:46:06;;;;;;;9.40;1.98;;;;;;;;;;5059538;28;20127;-54
2023/04/25 03:48:32;;;;;;;11.60;2.22;;;5.50;99.90;;;;;;5059347;28;20036;-56
2023/04/25 03:50:58;;;;;;;12.13;3.00;;;;;;;;;;5060370;28;20033;-53
2023/04/25 03:53:25;;;;;;;13.18;2.67;;;5.40;99.90;;;;;;5060334;28;20371;-56
2023/04/25 03:55:52;;;;;;;12.50;2.50;;;;;;;;;;5058001;28;20051;-56
2023/04/25 03:58:18;;;;;;;12.77;3.50;;;;;;;;;;5058825;28;20510;-56
2023/04/25 04:00:44;;;;;;;13.23;2.67;;;;;;;;;;5059717;28;20041;-54
2023/04/25 04:03:10;;;;;;;11.15;2.63;;;;;;;;;;5058327;28;20033;-55
2023/04/25 04:05:37;;;;;;;10.15;3.42;;;;;;;;;;5060426;28;20093;-54
2023/04/25 04:08:03;;;;;;;9.23;2.60;;;;;;;;;;5057392;28;20063;-56
2023/04/25 04:10:29;;;;;;;9.43;2.40;;;;;;;;;;5054850;28;20037;-56
2023/04/25 04:12:55;;;;;;;11.85;2.53;;;;;;;;;;5053378;28;20135;-55
2023/04/25 04:15:21;;;;;;;16.40;2.97;;;;;;;;;;5056970;28;20120;-55
2023/04/25 04:17:48;;;;;;;10.32;2.67;;;;;;;;;;5059384;28;20062;-55
2023/04/25 04:20:14;;;;;;;8.57;2.40;;;;;;;;;;5058714;28;20563;-54
2023/04/25 04:22:40;;;;;;;10.02;2.30;;;5.10;99.90;;;;;;5061421;28;20064;-55
2023/04/25 04:25:06;;;;;;;9.77;2.22;;;5.30;99.90;;;;;;5056506;28;20116;-56
2023/04/25 04:27:32;;;;;;;8.48;2.58;;;;;;;;;;5062084;28;20505;-56
2023/04/25 04:29:58;;;;;;;12.75;2.17;;;;;;;;;;5058218;28;20044;-56
2023/04/25 04:32:25;;;;;;;7.93;1.77;;;;;;;;;;5059257;28;20033;-55
2023/04/25 04:34:52;;;;;;;6.60;2.00;;;;;;;;;;5058928;28;20045;-56
2023/04/25 04:37:18;;;;;;;8.30;1.85;;;;;;;;;;5057831;28;20380;-56
2023/04/25 04:39:45;;;;;;;7.18;1.60;;;;;;;;;;5057770;28;20051;-56
2023/04/25 04:42:11;;;;;;;7.80;1.95;;;;;;;;;;5059391;28;20033;-55
2023/04/25 04:44:38;;;;;;;8.23;2.38;;;;;;;;;;5042330;28;20072;-56
2023/04/25 04:47:06;;;;;;;9.23;1.80;;;5.30;99.90;;;;;;5058262;28;20099;-56
2023/04/25 04:49:32;;;;;;;9.93;2.28;;;;;;;;;;5060271;28;20120;-56
2023/04/25 04:51:59;;;;;;;8.75;2.58;;;;;;;;;;5056842;28;20119;-57
2023/04/25 04:54:26;;;;;;;9.45;2.25;;;;;;;;;;5056232;28;20075;-55
2023/04/25 04:56:52;;;;;;;9.10;2.15;;;;;;;;;;5059742;28;20064;-56
2023/04/25 04:59:18;;;;;;;8.07;2.05;;;;;;;;;;5056467;28;20445;-55
2023/04/25 05:01:45;;;;;;;8.73;2.45;;;5.40;99.90;;;;;;5055251;28;20040;-57
2023/04/25 05:04:11;;;;;;;10.30;1.98;;;;;;;;;;5049942;28;20542;-56
2023/04/25 05:06:37;;;;;;;9.82;2.20;;;;;;;;;;5057772;28;20059;-57
2023/04/25 05:09:03;;;;;;;7.60;2.00;;;;;;;;;;5064822;28;20040;-56
2023/04/25 05:11:30;;;;;;;10.20;2.05;;;;;;;;;;5058407;28;20040;-56
2023/04/25 05:13:56;;;;;;;9.23;1.90;;;;;;;;;;5065502;28;20037;-56
2023/04/25 05:16:21;;;;;;;9.10;2.10;;;5.40;99.90;;;;;;5053697;28;20453;-56
2023/04/25 05:18:48;;;;;;;10.77;2.28;;;;;;;;;;5064290;28;20106;-55
2023/04/25 05:21:13;;;;;;;6.47;2.13;;;5.30;1.00;;;;;;5057433;28;20036;-55
2023/04/25 05:23:39;;;;;;;7.40;1.90;;;;;;;;;;5062414;28;20889;-56
2023/04/25 05:26:06;;;;;;;8.32;2.15;;;;;;;;;;5064562;28;20405;-56
2023/04/25 05:28:31;;;;;;;10.45;2.85;;;5.20;1.00;;;;;;5063237;28;20033;-56
2023/04/25 05:30:57;;;;;;;8.98;1.80;;;;;;;;;;5067019;28;20089;-57
2023/04/25 05:33:23;;;;;;;10.02;2.30;;;;;;;;;;5061539;28;20040;-54
2023/04/25 05:35:49;;;;;;;8.43;2.13;;;;;;;;;;5068100;28;20406;-56
2023/04/25 05:38:15;;;;;;;8.55;2.35;;;;;;;;;;5062741;28;20033;-56
2023/04/25 05:40:41;;;;;;;8.00;2.00;;;;;;;;;;5057150;28;20032;-55
2023/04/25 05:43:07;;;;;;;8.43;2.30;;;5.70;99.90;;;;;;5061658;28;20033;-54
2023/04/25 05:45:33;;;;;;;9.38;2.20;;;;;;;;;;5060653;28;20041;-55
2023/04/25 05:47:59;;;;;;;8.60;1.50;;;;;;;;;;5059736;28;20048;-56
2023/04/25 05:50:25;;;;;;;5.97;1.42;;;;;;;;;;5066179;28;20125;-56
2023/04/25 05:52:51;;;;;;;5.03;1.60;;;;;;;;;;5062035;28;20041;-55
2023/04/25 05:55:17;;;;;;;5.80;1.85;;;5.60;1.00;;;;;;5055207;28;20047;-53
2023/04/25 05:57:44;;;;;;;4.30;1.30;;;;;;;;;;5063314;28;20045;-56
2023/04/25 06:00:12;;;;;;;8.20;1.40;;;;;;;;;;5061199;28;20055;-55
2023/04/25 06:02:37;;;;;;;8.35;1.58;;;5.40;99.90;;;;;;5054886;28;20120;-55
2023/04/25 06:05:04;;;;;;;5.55;1.13;;;;;;;;;;5053009;28;20156;-54
2023/04/25 06:07:30;;;;;;;4.32;1.40;;;;;;;;;;5049126;28;20057;-55
2023/04/25 06:09:56;;;;;;;8.20;1.55;;;;;;;;;;5057312;28;20556;-56
2023/04/25 06:12:22;;;;;;;6.57;1.60;;;;;;;;;;5063549;28;20048;-55
2023/04/25 06:14:48;;;;;;;6.57;1.55;;;;;;;;;;5060947;28;20093;-56
2023/04/25 06:17:14;;;;;;;6.50;2.00;;;;;;;;;;5068270;28;20090;-54
2023/04/25 06:19:40;;;;;;;8.73;2.20;;;;;;;;;;5067897;28;20124;-56
2023/04/25 06:22:08;;;;;;;9.88;2.17;;;;;;;;;;5065839;28;20033;-55
2023/04/25 06:24:34;;;;;;;8.55;2.22;;;;;;;;;;5057318;28;20387;-54
2023/04/25 06:27:00;;;;;;;7.80;1.67;;;;;;;;;;5067765;28;20083;-55
2023/04/25 06:29:26;;;;;;;11.55;1.73;;;;;;;;;;5058029;28;20067;-55
2023/04/25 06:31:52;;;;;;;8.80;2.70;;;5.40;1.00;;;;;;5055179;28;20052;-55
2023/04/25 06:34:18;;;;;;;10.05;2.17;;;;;;;;;;5055351;28;20541;-55
2023/04/25 06:36:44;;;;;;;8.82;2.60;;;;;;;;;;5067083;28;20052;-56
2023/04/25 06:39:10;;;;;;;8.85;2.13;;;;;;;;;;5058776;28;20045;-55
2023/04/25 06:41:36;;;;;;;13.40;3.35;;;;;;;;;;5058468;28;20055;-55
2023/04/25 06:44:02;;;;;;;8.68;2.13;;;5.90;1.00;;;;;;5064726;28;20498;-55
2023/04/25 06:46:28;;;;;;;10.55;2.50;;;;;;;;;;5061470;28;20051;-54
2023/04/25 06:48:54;;;;;;;9.27;2.60;;;;;;;;;;5066057;28;20131;-56
2023/04/25 06:51:20;;;;;;;11.18;2.20;;;;;;;;;;5064933;28;20414;-56
2023/04/25 06:53:46;;;;;;;6.07;1.40;;;;;;;;;;5062618;28;20044;-56
2023/04/25 06:56:12;;;;;;;10.15;2.40;;;;;;;;;;5068153;28;20136;-55
2023/04/25 06:58:38;;;;;;;6.65;1.70;;;;;;;;;;5072382;28;20618;-55
2023/04/25 07:01:04;;;;;;;6.00;1.85;;;;;;;;;;5067174;28;20040;-56
2023/04/25 07:03:30;;;;;;;10.27;2.50;;;;;;;;;;5070152;28;20032;-56
2023/04/25 07:05:56;;;;;;;12.32;2.20;;;;;;;;;;5071866;28;20043;-55
2023/04/25 07:08:22;;;;;;;6.13;1.90;;;6.60;1.00;;;;;;5060744;28;20486;-55
2023/04/25 07:10:48;;;;;;;8.32;2.03;;;;;;;;;;5070121;28;20394;-56
2023/04/25 07:13:14;;;;;;;6.80;1.50;;;6.70;1.00;;;;;;5062691;28;20037;-56
2023/04/25 07:15:40;;;;;;;11.15;1.75;;;6.70;99.90;;;;;;5053853;28;20040;-56
2023/04/25 07:18:06;;;;;;;11.77;1.80;;;;;;;;;;5071183;28;20048;-55
2023/04/25 07:20:32;;;;;;;6.45;2.30;;;;;;;;;;5055113;28;20119;-54
2023/04/25 07:22:58;;;;;;;8.25;2.15;;;;;;;;;;5071710;28;20109;-56
2023/04/25 07:25:24;;;;;;;9.63;1.65;;;;;;;;;;5057032;28;20049;-56
2023/04/25 07:27:50;;;;;;;10.77;1.90;;;;;;;;;;5070706;28;20044;-56
2023/04/25 07:30:16;;;;;;;9.45;2.20;;;;;;;;;;5071437;28;20097;-56
2023/04/25 07:32:42;;;;;;;9.75;1.77;;;;;;;;;;5071486;28;20072;-55
2023/04/25 07:35:08;;;;;;;6.93;1.65;;;;;;;;;;5070991;28;20041;-56
2023/04/25 07:37:35;;;;;;;9.18;2.17;;;;;;;;;;5068783;28;20037;-56
2023/04/25 07:40:03;;;;;;;9.77;1.83;;;;;;;;;;5077784;28;20496;-57
2023/04/25 07:42:29;;;;;;;10.50;2.20;;;;;;;;;;5071619;28;20036;-55
2023/04/25 07:44:55;;;;;;;8.85;2.55;;;;;;;;;;5060058;28;20128;-55
2023/04/25 07:47:21;;;;;;;12.45;2.38;;;;;;;;;;5064880;28;20452;-56
2023/04/25 07:49:47;;;;;;;11.32;2.15;;;;;;;;;;5062860;28;20196;-57
2023/04/25 07:52:14;;;;;;;8.38;1.80;;;;;;;;;;5065713;28;20059;-57
2023/04/25 07:54:40;;;;;;;6.47;1.85;;;;;;;;;;5069673;28;20040;-56
2023/04/25 07:57:06;;;;;;;12.25;2.78;;;;;;;;;;5069768;28;20036;-55
2023/04/25 07:59:32;;;;;;;9.35;2.25;;;;;;;;;;5070135;28;20033;-55
2023/04/25 08:01:58;;;;;;;8.18;1.67;;;;;;;;;;5069668;28;20041;-56
2023/04/25 08:04:25;;;;;;;6.75;2.00;;;;;;;;;;5079308;28;20040;-57
2023/04/25 08:06:52;;;;;;;9.10;1.73;;;;;;;;;;5069332;28;20414;-56
2023/04/25 08:09:18;;;;;;;9.35;2.25;;;7.60;99.90;;;;;;5067815;28;20033;-57
2023/04/25 08:11:44;;;;;;;5.72;1.70;;;;;;;;;;5069092;28;20048;-56
2023/04/25 08:14:09;;;;;;;11.85;2.08;;;7.80;99.90;;;;;;5063136;28;20445;-55
2023/04/25 08:16:35;;;;;;;6.82;1.83;;;;;;;;;;5070240;28;20038;-55
2023/04/25 08:19:01;;;;;;;8.55;1.95;;;;;;;;;;5063862;28;20120;-55
2023/04/25 08:21:27;;;;;;;10.15;2.22;;;;;;;;;;5064261;28;20045;-57
2023/04/25 08:23:53;;;;;;;7.78;1.73;;;;;;;;;;5057879;28;20632;-57
2023/04/25 08:26:20;;;;;;;10.52;2.08;;;;;;;;;;5069331;28;20040;-57
2023/04/25 08:28:46;;;;;;;9.95;2.63;;;;;;;;;;5074729;28;20505;-57
2023/04/25 08:31:12;;;;;;;7.57;2.35;;;;;;;;;;5067002;28;20454;-56
2023/04/25 08:33:38;;;;;;;9.48;2.20;;;;;;;;;;5066984;28;20402;-54
2023/04/25 08:36:05;;;;;;;7.45;1.63;;;;;;;;;;5062062;28;20051;-56
2023/04/25 08:38:31;;;;;;;10.18;2.72;;;7.70;99.90;;;;;;5062597;28;20064;-57
2023/04/25 08:40:57;;;;;;;7.28;1.60;;;;;;;;;;5070509;28;20063;-57
2023/04/25 08:43:23;;;;;;;6.82;1.63;;;;;;;;;;5069743;28;20094;-57
2023/04/25 08:45:51;;;;;;;6.47;1.70;;;;;;;;;;5064056;28;20140;-56
2023/04/25 08:48:17;;;;;;;6.63;1.75;;;;;;;;;;5057883;28;20048;-56
2023/04/25 08:50:53;;;;;;;7.93;1.60;;;;;;;;;;5064991;28;20098;-56
2023/04/25 08:53:25;;;;;;;6.20;2.13;;;;;;;;;;5068163;28;20033;-57
2023/04/25 08:55:53;;;;;;;7.43;1.80;;;7.10;99.90;;;;;;5064607;28;20048;-57
2023/04/25 08:58:20;;;;;;;13.27;2.70;;;;;;;;;;5069692;28;20490;-57
2023/04/25 09:00:49;;;;;;;9.18;1.80;;;6.80;99.90;;;;;;5070067;28;20052;-57
2023/04/25 09:03:16;;;;;;;6.88;2.10;;;;;;;;;;5068723;28;20036;-55
2023/04/25 09:05:42;;;;;;;5.85;1.40;;;;;;;;;;5061385;28;20516;-57
2023/04/25 09:08:08;;;;;;;8.93;1.77;;;;;;;;;;5056194;28;20146;-54
2023/04/25 09:10:34;;;;;;;9.63;2.08;;;;;;;;;;5069079;28;20517;-57
2023/04/25 09:13:08;;;;;;;8.52;1.58;;;;;;;;;;5070031;28;20058;-56
2023/04/25 09:15:46;;;;;;;9.73;2.33;;;;;;;;;;5054656;28;20055;-57
2023/04/25 09:18:12;;;;;;;6.25;2.00;;;;;;;;;;5059334;28;20091;-54
2023/04/25 09:20:42;;;;;;;5.90;1.38;;;8.30;99.90;;;;;;5064224;28;20032;-56
2023/04/25 09:23:08;;;;;;;8.32;1.73;;;;;;;;;;5070125;28;20118;-57
2023/04/25 09:25:38;;;;;;;8.43;1.92;;;;;;;;;;5055236;28;20037;-57
2023/04/25 09:28:05;;;;;;;7.60;2.28;;;7.90;99.90;;;;;;5065581;28;20044;-57
2023/04/25 09:30:31;;;;;;;7.45;1.77;;;;;;;;;;5058523;28;20155;-55
2023/04/25 09:32:58;;;;;;;10.80;2.03;;;;;;;;;;5069109;28;20036;-56
2023/04/25 09:35:28;;;;;;;10.93;2.20;;;8.50;99.90;;;;;;5051616;28;20499;-55
2023/04/25 09:37:54;;;;;;;6.28;2.00;;;;;;;;;;5059156;28;20032;-57
2023/04/25 09:40:20;;;;;;;8.07;2.20;;;;;;;;;;5041559;28;20630;-56
2023/04/25 09:42:46;;;;;;;11.82;2.30;;;;;;;;;;5039165;28;20040;-53
2023/04/25 09:45:15;;;;;;;5.72;1.50;;;;;;;;;;5068008;28;20565;-55
2023/04/25 09:47:43;;;;;;;10.02;1.95;;;;;;;;;;5063423;28;20048;-56
2023/04/25 09:50:17;;;;;;;8.95;2.33;;;;;;;;;;5065132;28;20048;-52
2023/04/25 09:52:43;;;;;;;7.50;1.70;;;;;;;;;;5055881;28;20383;-53
2023/04/25 09:55:09;;;;;;;9.30;2.42;;;;;;;;;;5068526;28;20036;-57
2023/04/25 09:57:39;;;;;;;12.02;3.08;;;8.00;99.90;;;;;;5053044;28;20072;-55
2023/04/25 10:00:09;;;;;;;11.13;1.85;;;;;;;;;;5067233;28;20047;-55
2023/04/25 10:02:36;;;;;;;8.63;2.47;;;;;;;;;;5070808;28;20074;-52
2023/04/25 10:05:03;;;;;;;11.60;2.75;;;;;;;;;;5066310;28;20041;-54
2023/04/25 10:07:33;;;;;;;13.30;2.25;;;;;;;;;;5068442;28;20086;-55
2023/04/25 10:10:02;;;;;;;7.78;1.80;;;;;;;;;;5054862;28;20041;-55
2023/04/25 10:12:28;;;;;;;10.85;3.08;;;;;;;;;;5066514;28;20498;-55
2023/04/25 10:14:55;;;;;;;8.48;2.45;;;;;;;;;;5064568;28;20052;-57
2023/04/25 10:17:21;;;;;;;10.10;2.03;;;;;;;;;;5265357;22;20019;-57
2023/04/25 10:19:51;;;;;;;7.85;1.95;;;;;;;;;;5060838;28;20486;-55
2023/04/25 10:22:17;;;;;;;8.10;1.83;;;;;;;;;;5068012;28;20124;-53
2023/04/25 10:24:44;;;;;;;8.90;1.88;;;;;;;;;;5070379;28;20148;-56
2023/04/25 10:27:10;;;;;;;8.05;1.50;;;;;;;;;;5072185;28;20462;-55
2023/04/25 10:29:36;;;;;;;10.20;2.33;;;8.60;99.90;;;;;;5065758;28;20551;-57
2023/04/25 10:32:02;;;;;;;11.32;2.08;;;8.20;99.90;;;;;;5071365;28;20087;-56
2023/04/25 10:34:41;;;;;;;11.68;1.58;;;;;;;;;;5072051;28;20032;-55
2023/04/25 10:37:11;;;;;;;10.15;1.80;;;8.40;99.90;;;;;;5071899;28;20074;-54
2023/04/25 10:39:41;;;;;;;7.25;1.65;;;8.40;99.90;;;;;;5069973;28;20039;-56
2023/04/25 10:42:07;;;;;;;4.65;1.45;;;;;;;;;;5070943;28;20045;-53
2023/04/25 10:44:34;;;;;;;7.15;1.70;;;;;;;;;;5071566;28;20048;-52
2023/04/25 10:47:02;;;;;;;9.82;2.55;;;8.50;99.90;;;;;;5072030;28;20060;-53
2023/04/25 10:49:37;;;;;;;7.80;1.90;;;8.70;99.90;;;;;;5053742;28;20048;-57
2023/04/25 10:52:23;;;;;;;11.55;2.25;;;;;;;;;;5071248;28;20040;-54
2023/04/25 10:54:55;;;;;;;6.85;1.77;;;8.10;99.90;;;;;;5051110;28;20079;-53
2023/04/25 10:57:31;;;;;;;8.57;1.77;;;;;;;;;;5056662;28;20037;-55
2023/04/25 11:00:17;;;;;;;9.95;1.50;;;;;;;;;;5067774;28;20486;-56
2023/04/25 11:02:47;;;;;;;6.90;1.98;;;;;;;;;;5070094;28;20051;-53
2023/04/25 11:05:32;;;;;;;8.98;2.50;;;;;;;;;;5075804;22;20136;-66
2023/04/25 11:07:59;;;;;;;7.03;2.30;;;;;;;;;;5047290;28;20521;-67
2023/04/25 11:10:32;;;;;;;9.30;1.90;;;8.40;99.90;;;;;;5050949;28;20063;-66
2023/04/25 11:12:59;;;;;;;9.32;1.73;;;;;;;;;;5049691;28;20052;-66
2023/04/25 11:15:26;;;;;;;13.07;2.55;;;;;;;;;;5043873;28;20037;-66
2023/04/25 11:17:52;;;;;;;7.15;1.63;;;;;;;;;;5043844;28;20045;-66
2023/04/25 11:20:18;;;;;;;12.38;1.77;;;;;;;;;;5037260;28;20033;-66
2023/04/25 11:22:46;;;;;;;9.40;2.35;;;8.50;99.90;;;;;;5039950;28;20040;-66
2023/04/25 11:25:12;;;;;;;7.03;1.60;;;;;;;;;;5036566;28;20033;-66
2023/04/25 11:28:00;;;;;;;6.72;1.92;;;;;;;;;;5053005;28;20047;-66
2023/04/25 11:30:28;;;;;;;8.13;2.13;;;;;;;;;;5037979;28;20076;-66
2023/04/25 11:32:54;;;;;;;6.35;1.70;;;7.90;99.90;;;;;;5044930;28;20049;-66
2023/04/25 11:35:22;;;;;;;8.27;1.80;;;7.80;99.90;;;;;;5049671;28;20036;-67
2023/04/25 11:37:49;;;;;;;7.70;1.80;;;8.10;99.90;;;;;;5050162;28;20072;-66
2023/04/25 11:40:15;;;;;;;7.00;1.63;;;;;;;;;;5051345;28;20075;-66
2023/04/25 11:42:45;;;;;;;9.00;1.98;;;;;;;;;;5023437;28;20047;-66
2023/04/25 11:45:12;;;;;;;6.72;1.63;;;;;;;;;;5046508;28;20037;-66
2023/04/25 11:47:38;;;;;;;7.60;1.63;;;;;;;;;;5044536;28;20045;-66
2023/04/25 11:50:05;;;;;;;6.47;1.60;;;;;;;;;;5043417;28;20064;-66
2023/04/25 11:52:42;;;;;;;6.20;2.25;;;;;;;;;;5041509;28;20055;-66
2023/04/25 11:55:12;;;;;;;5.63;1.60;;;8.70;99.90;;;;;;5042275;28;20037;-66
2023/04/25 11:57:40;;;;;;;8.32;1.85;;;8.90;99.90;;;;;;5042111;28;20133;-66
2023/04/25 12:00:12;;;;;;;7.93;2.03;;;;;;;;;;5045369;28;20060;-67
2023/04/25 12:02:47;;;;;;;8.85;2.25;;;9.30;99.90;;;;;;5047961;28;20447;-66
2023/04/25 12:05:15;;;;;;;11.35;2.35;;;;;;;;;;5045009;28;21827;-65
2023/04/25 12:07:41;;;;;;;8.75;2.28;;;;;;;;;;5047899;28;20049;-66
2023/04/25 12:10:07;;;;;;;7.85;1.80;;;;;;;;;;5045399;28;20056;-66
2023/04/25 12:12:34;;;;;;;10.07;1.75;;;9.90;99.90;;;;;;5048491;28;20037;-66
2023/04/25 12:15:10;;;;;;;5.60;1.50;;;;;;;;;;5049749;28;20032;-66
2023/04/25 12:17:40;;;;;;;7.13;1.83;;;;;;;;;;5048362;28;20037;-66
2023/04/25 12:20:07;;;;;;;5.40;1.73;;;;;;;;;;5047267;28;20041;-66
2023/04/25 12:22:34;;;;;;;10.73;2.75;;;;;;;;;;5056385;28;20033;-65
2023/04/25 12:25:00;;;;;;;8.43;2.47;;;12.30;99.60;;;;;;5050090;28;20056;-65
2023/04/25 12:27:27;;;;;;;8.60;1.70;;;;;;;;;;5050519;28;20032;-65
2023/04/25 12:29:54;;;;;;;10.05;1.90;;;;;;;;;;5048961;28;20418;-65
2023/04/25 12:32:20;;;;;;;7.15;1.65;;;14.90;47.00;;;;;;5050361;28;20037;-65
2023/04/25 12:34:45;;;;;;;11.63;1.85;;;15.90;15.20;;;;;;5049694;28;20111;-65
2023/04/25 12:37:11;;;;;;;8.48;1.63;;;15.40;7.80;;;;;;5049171;28;20040;-66
2023/04/25 12:39:37;;;;;;;9.40;1.73;;;14.70;12.60;;;;;;5049689;28;20025;-65
2023/04/25 12:42:03;;;;;;;5.97;1.88;;;;;;;;;;5050508;28;20037;-65
2023/04/25 12:44:29;;;;;;;10.35;2.30;;;;;;;;;;5049791;28;20128;-66
2023/04/25 12:46:55;;;;;;;10.15;1.67;;;;;;;;;;5050045;28;20064;-66
2023/04/25 12:49:21;;;;;;;4.88;1.70;;;18.10;1.00;;;;;;5049907;28;20033;-66
2023/04/25 12:51:47;;;;;;;6.25;1.70;;;19.50;1.00;;;;;;5041567;28;20040;-65
2023/04/25 12:54:14;;;;;;;6.80;1.67;;;20.40;1.00;;;;;;5043343;28;20041;-66
2023/04/25 12:56:41;;;;;;;8.20;1.80;;;20.70;1.00;;;;;;5043826;28;20057;-66
2023/04/25 12:59:06;;;;;;;7.95;1.88;;;21.50;1.00;;;;;;5046267;28;20052;-65
2023/04/25 13:01:32;;;;;;;5.85;1.63;;;22.60;1.00;;;;;;5039998;28;20679;-66
2023/04/25 13:03:58;;;;;;;9.00;2.53;;;22.20;1.00;;;;;;5031959;28;20106;-66
2023/04/25 13:06:24;;;;;;;8.45;1.67;;;20.90;1.00;;;;;;5047710;28;20094;-65
2023/04/25 13:08:49;;;;;;;6.60;1.60;;;18.60;1.00;;;;;;5037020;28;20114;-66
2023/04/25 13:11:15;;;;;;;10.10;2.10;;;17.20;1.00;;;;;;5035753;28;20449;-66
2023/04/25 13:13:42;;;;;;;7.68;1.83;;;17.80;1.00;;;;;;5036227;28;20064;-65
2023/04/25 13:16:08;;;;;;;6.45;2.40;;;19.30;1.00;;;;;;5039043;28;20056;-65
2023/04/25 13:18:34;;;;;;;8.82;2.05;;;20.00;1.00;;;;;;5038237;28;20486;-66
2023/04/25 13:21:00;;;;;;;7.10;1.83;;;19.10;1.00;;;;;;5041145;28;20031;-66
2023/04/25 13:23:27;;;;;;;10.45;2.80;;;20.50;1.00;;;;;;5037431;28;20037;-66
2023/04/25 13:25:53;;;;;;;11.40;3.17;;;20.70;1.00;;;;;;5038354;28;20502;-66
2023/04/25 13:28:19;;;;;;;8.80;1.77;;;20.80;1.00;;;;;;5045876;28;20047;-66
2023/04/25 13:30:45;;;;;;;13.70;2.38;;;21.30;1.00;;;;;;5047826;28;20049;-65
2023/04/25 13:33:12;;;;;;;5.68;1.55;;;21.50;1.00;;;;;;5049035;28;20494;-66
2023/04/25 13:35:38;;;;;;;4.63;1.42;;;21.80;1.00;;;;;;5047050;28;20084;-65
2023/04/25 13:38:04;;;;;;;6.40;1.48;;;23.10;1.00;;;;;;5049248;28;20196;-65
2023/04/25 13:40:31;;;;;;;8.43;2.25;;;22.40;1.00;;;;;;5047273;28;20049;-66
2023/04/25 13:42:57;;;;;;;7.00;1.70;;;20.20;1.00;;;;;;5039505;28;20048;-66
2023/04/25 13:45:23;;;;;;;6.90;1.50;;;18.60;1.00;;;;;;5047935;28;20037;-65
2023/04/25 13:47:48;;;;;;;7.07;1.65;;;18.40;1.00;;;;;;5047528;28;20414;-65
2023/04/25 13:50:15;;;;;;;10.02;1.98;;;17.90;1.00;;;;;;5049628;28;20071;-65
2023/04/25 13:52:41;;;;;;;8.30;1.80;;;17.40;1.00;;;;;;5047527;28;20059;-65
2023/04/25 13:55:08;;;;;;;7.68;1.70;;;;;;;;;;5047675;28;20036;-65
2023/04/25 13:57:35;;;;;;;5.40;1.60;;;17.60;1.00;;;;;;5047845;28;20051;-65
2023/04/25 14:00:06;;;;;;;7.13;1.88;;;;;;;;;;5046619;28;20056;-65
2023/04/25 14:02:31;;;;;;;6.47;2.83;;;14.80;1.00;;;;;;5044605;28;20049;-65
2023/04/25 14:04:57;;;;;;;6.82;1.50;;;13.50;1.00;;;;;;5047916;28;20037;-64
2023/04/25 14:07:22;;;;;;;5.45;1.70;;;14.60;1.00;;;;;;5048141;28;20032;-66